sensor_id;sensor_type;location;lat;lon;timestamp;P1;durP1;ratioP1;P2;durP2;ratioP2
23270;SDS011;11804;51.118;17.058;2022-08-19T00:02:14;14.53;;;9.60;;
23270;SDS011;11804;51.118;17.058;2022-08-19T00:04:42;10.43;;;9.38;;
23270;SDS011;11804;51.118;17.058;2022-08-19T00:07:11;13.53;;;9.15;;
23270;SDS011;11804;51.118;17.058;2022-08-19T00:09:38;12.07;;;9.48;;
23270;SDS011;11804;51.118;17.058;2022-08-19T00:12:06;10.43;;;9.10;;
23270;SDS011;11804;51.118;17.058;2022-08-19T00:14:34;10.70;;;9.60;;
23270;SDS011;11804;51.118;17.058;2022-08-19T00:17:02;12.75;;;10.13;;
23270;SDS011;11804;51.118;17.058;2022-08-19T00:19:32;10.38;;;8.78;;
23270;SDS011;11804;51.118;17.058;2022-08-19T00:22:00;12.05;;;10.00;;
23270;SDS011;11804;51.118;17.058;2022-08-19T00:24:30;12.05;;;10.10;;
23270;SDS011;11804;51.118;17.058;2022-08-19T00:26:57;12.35;;;9.35;;
23270;SDS011;11804;51.118;17.058;2022-08-19T00:29:27;10.82;;;9.65;;
23270;SDS011;11804;51.118;17.058;2022-08-19T00:31:56;10.65;;;9.55;;
23270;SDS011;11804;51.118;17.058;2022-08-19T00:34:25;13.18;;;9.83;;
23270;SDS011;11804;51.118;17.058;2022-08-19T00:36:54;11.10;;;9.88;;
23270;SDS011;11804;51.118;17.058;2022-08-19T00:39:23;10.13;;;9.00;;
23270;SDS011;11804;51.118;17.058;2022-08-19T00:41:50;11.57;;;9.50;;
23270;SDS011;11804;51.118;17.058;2022-08-19T00:44:27;15.00;;;9.75;;
23270;SDS011;11804;51.118;17.058;2022-08-19T00:46:52;12.28;;;9.53;;
23270;SDS011;11804;51.118;17.058;2022-08-19T00:49:25;10.15;;;8.88;;
23270;SDS011;11804;51.118;17.058;2022-08-19T00:52:06;10.35;;;9.23;;
23270;SDS011;11804;51.118;17.058;2022-08-19T00:54:37;11.18;;;9.25;;
23270;SDS011;11804;51.118;17.058;2022-08-19T00:57:07;13.95;;;9.43;;
23270;SDS011;11804;51.118;17.058;2022-08-19T00:59:39;12.10;;;9.13;;
23270;SDS011;11804;51.118;17.058;2022-08-19T01:02:08;11.57;;;9.20;;
23270;SDS011;11804;51.118;17.058;2022-08-19T01:04:36;11.15;;;8.70;;
23270;SDS011;11804;51.118;17.058;2022-08-19T01:07:05;11.80;;;9.15;;
23270;SDS011;11804;51.118;17.058;2022-08-19T01:09:34;10.53;;;9.35;;
23270;SDS011;11804;51.118;17.058;2022-08-19T01:12:01;11.15;;;9.20;;
23270;SDS011;11804;51.118;17.058;2022-08-19T01:14:29;12.25;;;9.05;;
23270;SDS011;11804;51.118;17.058;2022-08-19T01:17:01;10.25;;;9.13;;
23270;SDS011;11804;51.118;17.058;2022-08-19T01:19:37;9.98;;;8.65;;
23270;SDS011;11804;51.118;17.058;2022-08-19T01:24:36;10.35;;;9.10;;
23270;SDS011;11804;51.118;17.058;2022-08-19T01:27:05;12.47;;;9.05;;
23270;SDS011;11804;51.118;17.058;2022-08-19T01:29:36;10.43;;;8.78;;
23270;SDS011;11804;51.118;17.058;2022-08-19T01:32:05;9.75;;;8.75;;
23270;SDS011;11804;51.118;17.058;2022-08-19T01:34:34;10.50;;;9.20;;
23270;SDS011;11804;51.118;17.058;2022-08-19T01:37:05;10.15;;;8.78;;
23270;SDS011;11804;51.118;17.058;2022-08-19T01:39:37;11.83;;;8.83;;
23270;SDS011;11804;51.118;17.058;2022-08-19T01:42:07;11.05;;;9.43;;
23270;SDS011;11804;51.118;17.058;2022-08-19T01:44:42;10.88;;;9.28;;
23270;SDS011;11804;51.118;17.058;2022-08-19T01:47:07;11.28;;;9.98;;
23270;SDS011;11804;51.118;17.058;2022-08-19T01:49:36;11.12;;;8.98;;
23270;SDS011;11804;51.118;17.058;2022-08-19T01:52:04;11.80;;;8.58;;
23270;SDS011;11804;51.118;17.058;2022-08-19T01:54:33;10.80;;;9.45;;
23270;SDS011;11804;51.118;17.058;2022-08-19T01:57:03;10.25;;;9.25;;
23270;SDS011;11804;51.118;17.058;2022-08-19T01:59:31;10.32;;;9.23;;
23270;SDS011;11804;51.118;17.058;2022-08-19T02:02:02;11.38;;;9.18;;
23270;SDS011;11804;51.118;17.058;2022-08-19T02:04:33;11.12;;;9.13;;
23270;SDS011;11804;51.118;17.058;2022-08-19T02:07:02;13.10;;;9.35;;
23270;SDS011;11804;51.118;17.058;2022-08-19T02:09:33;10.35;;;9.18;;
23270;SDS011;11804;51.118;17.058;2022-08-19T02:12:03;11.75;;;10.03;;
23270;SDS011;11804;51.118;17.058;2022-08-19T02:14:33;10.10;;;9.03;;
23270;SDS011;11804;51.118;17.058;2022-08-19T02:17:01;11.83;;;9.30;;
23270;SDS011;11804;51.118;17.058;2022-08-19T02:19:28;10.78;;;9.68;;
23270;SDS011;11804;51.118;17.058;2022-08-19T02:21:58;10.75;;;9.15;;
23270;SDS011;11804;51.118;17.058;2022-08-19T02:24:27;10.45;;;9.40;;
23270;SDS011;11804;51.118;17.058;2022-08-19T02:26:55;12.63;;;9.90;;
23270;SDS011;11804;51.118;17.058;2022-08-19T02:29:24;10.60;;;9.38;;
23270;SDS011;11804;51.118;17.058;2022-08-19T02:31:51;10.58;;;8.93;;
23270;SDS011;11804;51.118;17.058;2022-08-19T02:34:21;10.75;;;9.65;;
23270;SDS011;11804;51.118;17.058;2022-08-19T02:36:48;11.93;;;9.43;;
23270;SDS011;11804;51.118;17.058;2022-08-19T02:39:15;10.20;;;9.25;;
23270;SDS011;11804;51.118;17.058;2022-08-19T02:41:43;14.03;;;9.48;;
23270;SDS011;11804;51.118;17.058;2022-08-19T02:44:11;10.72;;;8.95;;
23270;SDS011;11804;51.118;17.058;2022-08-19T02:46:38;10.98;;;9.48;;
23270;SDS011;11804;51.118;17.058;2022-08-19T02:49:07;12.20;;;10.13;;
23270;SDS011;11804;51.118;17.058;2022-08-19T02:51:36;12.40;;;9.45;;
23270;SDS011;11804;51.118;17.058;2022-08-19T02:54:05;12.20;;;9.60;;
23270;SDS011;11804;51.118;17.058;2022-08-19T02:56:35;11.03;;;9.93;;
23270;SDS011;11804;51.118;17.058;2022-08-19T02:59:04;13.40;;;10.30;;
23270;SDS011;11804;51.118;17.058;2022-08-19T03:01:34;11.68;;;10.40;;
23270;SDS011;11804;51.118;17.058;2022-08-19T03:04:05;14.53;;;10.08;;
23270;SDS011;11804;51.118;17.058;2022-08-19T03:06:35;10.95;;;9.83;;
23270;SDS011;11804;51.118;17.058;2022-08-19T03:09:04;12.88;;;10.43;;
23270;SDS011;11804;51.118;17.058;2022-08-19T03:11:32;13.25;;;10.03;;
23270;SDS011;11804;51.118;17.058;2022-08-19T03:14:01;12.90;;;10.13;;
23270;SDS011;11804;51.118;17.058;2022-08-19T03:16:31;14.47;;;10.18;;
23270;SDS011;11804;51.118;17.058;2022-08-19T03:19:02;16.32;;;11.00;;
23270;SDS011;11804;51.118;17.058;2022-08-19T03:21:32;13.05;;;10.40;;
23270;SDS011;11804;51.118;17.058;2022-08-19T03:24:03;12.40;;;11.05;;
23270;SDS011;11804;51.118;17.058;2022-08-19T03:26:32;13.13;;;10.40;;
23270;SDS011;11804;51.118;17.058;2022-08-19T03:29:02;13.98;;;11.15;;
23270;SDS011;11804;51.118;17.058;2022-08-19T03:31:31;14.20;;;11.18;;
23270;SDS011;11804;51.118;17.058;2022-08-19T03:33:59;13.18;;;11.08;;
23270;SDS011;11804;51.118;17.058;2022-08-19T03:36:27;14.03;;;11.88;;
23270;SDS011;11804;51.118;17.058;2022-08-19T03:38:56;13.70;;;11.55;;
23270;SDS011;11804;51.118;17.058;2022-08-19T03:41:32;14.93;;;11.10;;
23270;SDS011;11804;51.118;17.058;2022-08-19T03:43:56;12.70;;;11.28;;
23270;SDS011;11804;51.118;17.058;2022-08-19T03:46:28;13.28;;;11.50;;
23270;SDS011;11804;51.118;17.058;2022-08-19T03:48:56;13.00;;;11.60;;
23270;SDS011;11804;51.118;17.058;2022-08-19T03:51:29;14.60;;;10.93;;
23270;SDS011;11804;51.118;17.058;2022-08-19T03:53:59;14.00;;;11.45;;
23270;SDS011;11804;51.118;17.058;2022-08-19T03:56:29;15.38;;;11.88;;
23270;SDS011;11804;51.118;17.058;2022-08-19T03:59:01;13.72;;;11.53;;
23270;SDS011;11804;51.118;17.058;2022-08-19T04:01:29;15.35;;;11.97;;
23270;SDS011;11804;51.118;17.058;2022-08-19T04:03:57;13.78;;;12.20;;
23270;SDS011;11804;51.118;17.058;2022-08-19T04:06:27;15.03;;;12.68;;
23270;SDS011;11804;51.118;17.058;2022-08-19T04:08:57;15.65;;;11.65;;
23270;SDS011;11804;51.118;17.058;2022-08-19T04:11:30;15.68;;;12.03;;
23270;SDS011;11804;51.118;17.058;2022-08-19T04:14:05;12.70;;;11.33;;
23270;SDS011;11804;51.118;17.058;2022-08-19T04:16:33;16.17;;;12.75;;
23270;SDS011;11804;51.118;17.058;2022-08-19T04:19:01;15.70;;;12.98;;
23270;SDS011;11804;51.118;17.058;2022-08-19T04:21:32;18.07;;;12.60;;
23270;SDS011;11804;51.118;17.058;2022-08-19T04:24:00;18.20;;;13.62;;
23270;SDS011;11804;51.118;17.058;2022-08-19T04:26:33;18.23;;;12.68;;
23270;SDS011;11804;51.118;17.058;2022-08-19T04:29:07;15.78;;;12.98;;
23270;SDS011;11804;51.118;17.058;2022-08-19T04:31:36;20.65;;;13.95;;
23270;SDS011;11804;51.118;17.058;2022-08-19T04:34:07;17.55;;;13.35;;
23270;SDS011;11804;51.118;17.058;2022-08-19T04:36:37;19.95;;;13.35;;
23270;SDS011;11804;51.118;17.058;2022-08-19T04:39:08;19.95;;;13.48;;
23270;SDS011;11804;51.118;17.058;2022-08-19T04:41:37;19.77;;;13.72;;
23270;SDS011;11804;51.118;17.058;2022-08-19T04:44:25;17.17;;;14.28;;
23270;SDS011;11804;51.118;17.058;2022-08-19T04:46:54;18.73;;;13.78;;
23270;SDS011;11804;51.118;17.058;2022-08-19T04:49:22;18.25;;;13.80;;
23270;SDS011;11804;51.118;17.058;2022-08-19T04:51:52;20.15;;;14.15;;
23270;SDS011;11804;51.118;17.058;2022-08-19T04:54:23;24.37;;;14.75;;
23270;SDS011;11804;51.118;17.058;2022-08-19T04:56:53;18.30;;;14.33;;
23270;SDS011;11804;51.118;17.058;2022-08-19T04:59:23;20.30;;;13.72;;
23270;SDS011;11804;51.118;17.058;2022-08-19T05:01:50;23.83;;;14.23;;
23270;SDS011;11804;51.118;17.058;2022-08-19T05:04:18;22.67;;;13.90;;
23270;SDS011;11804;51.118;17.058;2022-08-19T05:06:47;19.23;;;13.95;;
23270;SDS011;11804;51.118;17.058;2022-08-19T05:09:15;20.57;;;14.60;;
23270;SDS011;11804;51.118;17.058;2022-08-19T05:11:43;18.73;;;14.75;;
23270;SDS011;11804;51.118;17.058;2022-08-19T05:14:11;18.82;;;14.50;;
23270;SDS011;11804;51.118;17.058;2022-08-19T05:16:39;19.55;;;15.65;;
23270;SDS011;11804;51.118;17.058;2022-08-19T05:19:08;22.25;;;15.58;;
23270;SDS011;11804;51.118;17.058;2022-08-19T05:21:54;20.17;;;16.67;;
23270;SDS011;11804;51.118;17.058;2022-08-19T05:24:39;20.05;;;15.40;;
23270;SDS011;11804;51.118;17.058;2022-08-19T05:27:07;18.82;;;15.18;;
23270;SDS011;11804;51.118;17.058;2022-08-19T05:29:35;19.40;;;15.48;;
23270;SDS011;11804;51.118;17.058;2022-08-19T05:32:05;25.68;;;16.45;;
23270;SDS011;11804;51.118;17.058;2022-08-19T05:34:36;22.82;;;15.08;;
23270;SDS011;11804;51.118;17.058;2022-08-19T05:37:04;17.60;;;14.33;;
23270;SDS011;11804;51.118;17.058;2022-08-19T05:39:34;17.80;;;13.55;;
23270;SDS011;11804;51.118;17.058;2022-08-19T05:42:05;17.10;;;13.75;;
23270;SDS011;11804;51.118;17.058;2022-08-19T05:44:35;17.10;;;14.15;;
23270;SDS011;11804;51.118;17.058;2022-08-19T05:47:07;18.37;;;14.70;;
23270;SDS011;11804;51.118;17.058;2022-08-19T05:49:35;20.65;;;15.40;;
23270;SDS011;11804;51.118;17.058;2022-08-19T05:52:04;17.30;;;14.85;;
23270;SDS011;11804;51.118;17.058;2022-08-19T05:54:33;19.27;;;15.13;;
23270;SDS011;11804;51.118;17.058;2022-08-19T05:57:03;20.50;;;15.20;;
23270;SDS011;11804;51.118;17.058;2022-08-19T05:59:31;22.48;;;14.55;;
23270;SDS011;11804;51.118;17.058;2022-08-19T06:02:00;23.00;;;14.55;;
23270;SDS011;11804;51.118;17.058;2022-08-19T06:04:29;17.77;;;13.70;;
23270;SDS011;11804;51.118;17.058;2022-08-19T06:06:57;21.52;;;14.45;;
23270;SDS011;11804;51.118;17.058;2022-08-19T06:09:24;22.73;;;15.28;;
23270;SDS011;11804;51.118;17.058;2022-08-19T06:11:53;20.45;;;14.15;;
23270;SDS011;11804;51.118;17.058;2022-08-19T06:14:25;19.32;;;13.15;;
23270;SDS011;11804;51.118;17.058;2022-08-19T06:16:55;20.82;;;14.45;;
23270;SDS011;11804;51.118;17.058;2022-08-19T06:19:26;19.57;;;13.83;;
23270;SDS011;11804;51.118;17.058;2022-08-19T06:21:55;22.05;;;14.20;;
23270;SDS011;11804;51.118;17.058;2022-08-19T06:24:25;17.85;;;15.28;;
23270;SDS011;11804;51.118;17.058;2022-08-19T06:26:55;27.25;;;15.15;;
23270;SDS011;11804;51.118;17.058;2022-08-19T06:29:24;16.35;;;13.75;;
23270;SDS011;11804;51.118;17.058;2022-08-19T06:31:53;17.15;;;13.15;;
23270;SDS011;11804;51.118;17.058;2022-08-19T06:34:23;22.30;;;14.43;;
23270;SDS011;11804;51.118;17.058;2022-08-19T06:36:53;20.02;;;12.95;;
23270;SDS011;11804;51.118;17.058;2022-08-19T06:39:23;18.77;;;12.80;;
23270;SDS011;11804;51.118;17.058;2022-08-19T06:41:55;18.77;;;12.68;;
23270;SDS011;11804;51.118;17.058;2022-08-19T06:44:24;15.60;;;12.13;;
23270;SDS011;11804;51.118;17.058;2022-08-19T06:46:54;19.73;;;12.10;;
23270;SDS011;11804;51.118;17.058;2022-08-19T06:49:23;16.65;;;12.30;;
23270;SDS011;11804;51.118;17.058;2022-08-19T06:51:52;16.07;;;11.95;;
23270;SDS011;11804;51.118;17.058;2022-08-19T06:54:21;19.75;;;12.98;;
23270;SDS011;11804;51.118;17.058;2022-08-19T06:56:49;17.98;;;12.47;;
23270;SDS011;11804;51.118;17.058;2022-08-19T06:59:18;16.30;;;11.78;;
23270;SDS011;11804;51.118;17.058;2022-08-19T07:01:51;22.93;;;11.30;;
23270;SDS011;11804;51.118;17.058;2022-08-19T07:04:26;16.12;;;11.05;;
23270;SDS011;11804;51.118;17.058;2022-08-19T07:06:55;22.40;;;12.35;;
23270;SDS011;11804;51.118;17.058;2022-08-19T07:09:25;12.68;;;10.93;;
23270;SDS011;11804;51.118;17.058;2022-08-19T07:11:54;17.67;;;10.98;;
23270;SDS011;11804;51.118;17.058;2022-08-19T07:14:24;13.55;;;10.08;;
23270;SDS011;11804;51.118;17.058;2022-08-19T07:16:54;17.98;;;10.35;;
23270;SDS011;11804;51.118;17.058;2022-08-19T07:19:25;14.47;;;9.50;;
23270;SDS011;11804;51.118;17.058;2022-08-19T07:21:53;14.73;;;9.48;;
23270;SDS011;11804;51.118;17.058;2022-08-19T07:24:23;15.13;;;9.90;;
23270;SDS011;11804;51.118;17.058;2022-08-19T07:26:52;13.65;;;9.70;;
23270;SDS011;11804;51.118;17.058;2022-08-19T07:29:22;15.10;;;9.98;;
23270;SDS011;11804;51.118;17.058;2022-08-19T07:31:50;18.52;;;9.48;;
23270;SDS011;11804;51.118;17.058;2022-08-19T07:34:22;15.25;;;9.00;;
23270;SDS011;11804;51.118;17.058;2022-08-19T07:36:50;13.22;;;9.23;;
23270;SDS011;11804;51.118;17.058;2022-08-19T07:39:20;26.48;;;10.05;;
23270;SDS011;11804;51.118;17.058;2022-08-19T07:41:52;11.90;;;9.03;;
23270;SDS011;11804;51.118;17.058;2022-08-19T07:44:21;12.47;;;9.00;;
23270;SDS011;11804;51.118;17.058;2022-08-19T07:46:50;13.80;;;8.65;;
23270;SDS011;11804;51.118;17.058;2022-08-19T07:49:19;11.97;;;8.08;;
23270;SDS011;11804;51.118;17.058;2022-08-19T07:51:49;11.28;;;8.60;;
23270;SDS011;11804;51.118;17.058;2022-08-19T07:54:22;16.15;;;9.83;;
23270;SDS011;11804;51.118;17.058;2022-08-19T07:56:51;13.15;;;8.48;;
23270;SDS011;11804;51.118;17.058;2022-08-19T07:59:20;14.47;;;9.25;;
23270;SDS011;11804;51.118;17.058;2022-08-19T08:01:49;16.82;;;9.05;;
23270;SDS011;11804;51.118;17.058;2022-08-19T08:04:18;15.80;;;9.55;;
23270;SDS011;11804;51.118;17.058;2022-08-19T08:07:04;11.18;;;8.08;;
23270;SDS011;11804;51.118;17.058;2022-08-19T08:09:50;11.20;;;7.85;;
23270;SDS011;11804;51.118;17.058;2022-08-19T08:12:20;11.57;;;7.62;;
23270;SDS011;11804;51.118;17.058;2022-08-19T08:14:52;12.10;;;7.90;;
23270;SDS011;11804;51.118;17.058;2022-08-19T08:17:22;11.38;;;7.85;;
23270;SDS011;11804;51.118;17.058;2022-08-19T08:19:51;15.10;;;8.30;;
23270;SDS011;11804;51.118;17.058;2022-08-19T08:22:21;12.18;;;8.58;;
23270;SDS011;11804;51.118;17.058;2022-08-19T08:25:10;16.17;;;9.40;;
23270;SDS011;11804;51.118;17.058;2022-08-19T08:27:40;11.65;;;8.55;;
23270;SDS011;11804;51.118;17.058;2022-08-19T08:30:15;11.97;;;8.58;;
23270;SDS011;11804;51.118;17.058;2022-08-19T08:32:40;12.68;;;7.97;;
23270;SDS011;11804;51.118;17.058;2022-08-19T08:35:09;16.50;;;8.03;;
23270;SDS011;11804;51.118;17.058;2022-08-19T08:37:39;11.70;;;7.33;;
23270;SDS011;11804;51.118;17.058;2022-08-19T08:40:21;10.80;;;7.72;;
23270;SDS011;11804;51.118;17.058;2022-08-19T08:43:03;13.93;;;8.00;;
23270;SDS011;11804;51.118;17.058;2022-08-19T08:45:36;14.13;;;7.80;;
23270;SDS011;11804;51.118;17.058;2022-08-19T08:48:10;13.98;;;8.20;;
23270;SDS011;11804;51.118;17.058;2022-08-19T08:50:39;12.05;;;8.48;;
23270;SDS011;11804;51.118;17.058;2022-08-19T08:53:07;14.73;;;7.55;;
23270;SDS011;11804;51.118;17.058;2022-08-19T08:55:35;10.72;;;7.15;;
23270;SDS011;11804;51.118;17.058;2022-08-19T08:58:07;12.88;;;7.67;;
23270;SDS011;11804;51.118;17.058;2022-08-19T09:00:47;12.95;;;7.95;;
23270;SDS011;11804;51.118;17.058;2022-08-19T09:03:22;10.28;;;7.03;;
23270;SDS011;11804;51.118;17.058;2022-08-19T09:06:02;14.98;;;8.00;;
23270;SDS011;11804;51.118;17.058;2022-08-19T09:14:19;18.50;;;8.10;;
23270;SDS011;11804;51.118;17.058;2022-08-19T09:17:02;12.00;;;7.58;;
23270;SDS011;11804;51.118;17.058;2022-08-19T09:19:32;12.53;;;8.15;;
23270;SDS011;11804;51.118;17.058;2022-08-19T09:22:02;12.90;;;7.87;;
23270;SDS011;11804;51.118;17.058;2022-08-19T09:24:31;12.68;;;7.47;;
23270;SDS011;11804;51.118;17.058;2022-08-19T09:26:58;10.93;;;7.25;;
23270;SDS011;11804;51.118;17.058;2022-08-19T09:29:26;13.50;;;8.15;;
23270;SDS011;11804;51.118;17.058;2022-08-19T09:31:55;10.40;;;7.42;;
23270;SDS011;11804;51.118;17.058;2022-08-19T09:34:23;11.18;;;7.53;;
23270;SDS011;11804;51.118;17.058;2022-08-19T09:36:51;13.58;;;7.67;;
23270;SDS011;11804;51.118;17.058;2022-08-19T09:39:21;23.35;;;9.18;;
23270;SDS011;11804;51.118;17.058;2022-08-19T09:41:48;14.40;;;8.70;;
23270;SDS011;11804;51.118;17.058;2022-08-19T09:44:16;18.25;;;8.08;;
23270;SDS011;11804;51.118;17.058;2022-08-19T09:46:46;13.65;;;8.20;;
23270;SDS011;11804;51.118;17.058;2022-08-19T09:49:14;15.50;;;8.15;;
23270;SDS011;11804;51.118;17.058;2022-08-19T09:51:44;17.82;;;8.50;;
23270;SDS011;11804;51.118;17.058;2022-08-19T09:54:14;14.53;;;8.60;;
23270;SDS011;11804;51.118;17.058;2022-08-19T09:56:41;15.95;;;9.00;;
23270;SDS011;11804;51.118;17.058;2022-08-19T09:59:10;20.20;;;8.35;;
23270;SDS011;11804;51.118;17.058;2022-08-19T10:01:37;16.15;;;8.30;;
23270;SDS011;11804;51.118;17.058;2022-08-19T10:04:05;11.28;;;7.67;;
23270;SDS011;11804;51.118;17.058;2022-08-19T10:06:35;16.37;;;7.78;;
23270;SDS011;11804;51.118;17.058;2022-08-19T10:09:05;12.20;;;7.70;;
23270;SDS011;11804;51.118;17.058;2022-08-19T10:11:38;9.70;;;7.45;;
23270;SDS011;11804;51.118;17.058;2022-08-19T10:14:07;15.40;;;8.03;;
23270;SDS011;11804;51.118;17.058;2022-08-19T10:16:36;12.10;;;7.55;;
23270;SDS011;11804;51.118;17.058;2022-08-19T10:19:04;12.65;;;7.92;;
23270;SDS011;11804;51.118;17.058;2022-08-19T10:21:32;12.58;;;7.42;;
23270;SDS011;11804;51.118;17.058;2022-08-19T10:24:01;18.45;;;8.45;;
23270;SDS011;11804;51.118;17.058;2022-08-19T10:26:32;10.25;;;6.90;;
23270;SDS011;11804;51.118;17.058;2022-08-19T10:29:03;13.93;;;7.12;;
23270;SDS011;11804;51.118;17.058;2022-08-19T10:31:32;10.88;;;7.15;;
23270;SDS011;11804;51.118;17.058;2022-08-19T10:34:02;13.78;;;8.08;;
23270;SDS011;11804;51.118;17.058;2022-08-19T10:36:34;10.35;;;7.65;;
23270;SDS011;11804;51.118;17.058;2022-08-19T10:39:06;14.53;;;7.00;;
23270;SDS011;11804;51.118;17.058;2022-08-19T10:41:36;13.05;;;6.55;;
23270;SDS011;11804;51.118;17.058;2022-08-19T10:44:05;10.23;;;6.65;;
23270;SDS011;11804;51.118;17.058;2022-08-19T10:46:42;9.95;;;6.33;;
23270;SDS011;11804;51.118;17.058;2022-08-19T10:49:10;12.73;;;6.20;;
23270;SDS011;11804;51.118;17.058;2022-08-19T10:51:39;10.72;;;5.60;;
23270;SDS011;11804;51.118;17.058;2022-08-19T10:54:25;12.03;;;6.05;;
23270;SDS011;11804;51.118;17.058;2022-08-19T10:56:55;8.95;;;5.80;;
23270;SDS011;11804;51.118;17.058;2022-08-19T11:01:58;8.08;;;5.53;;
23270;SDS011;11804;51.118;17.058;2022-08-19T11:04:27;11.20;;;5.50;;
23270;SDS011;11804;51.118;17.058;2022-08-19T11:06:57;13.10;;;5.80;;
23270;SDS011;11804;51.118;17.058;2022-08-19T11:09:26;10.20;;;5.60;;
23270;SDS011;11804;51.118;17.058;2022-08-19T11:11:53;13.72;;;5.95;;
23270;SDS011;11804;51.118;17.058;2022-08-19T11:14:22;13.10;;;6.60;;
23270;SDS011;11804;51.118;17.058;2022-08-19T11:16:51;9.28;;;5.90;;
23270;SDS011;11804;51.118;17.058;2022-08-19T11:19:21;10.38;;;6.25;;
23270;SDS011;11804;51.118;17.058;2022-08-19T11:21:51;14.03;;;6.90;;
23270;SDS011;11804;51.118;17.058;2022-08-19T11:24:22;7.92;;;6.30;;
23270;SDS011;11804;51.118;17.058;2022-08-19T11:26:51;9.55;;;6.80;;
23270;SDS011;11804;51.118;17.058;2022-08-19T11:29:22;13.45;;;6.97;;
23270;SDS011;11804;51.118;17.058;2022-08-19T11:31:51;12.37;;;7.40;;
23270;SDS011;11804;51.118;17.058;2022-08-19T11:34:20;14.63;;;8.50;;
23270;SDS011;11804;51.118;17.058;2022-08-19T11:36:50;13.20;;;5.50;;
23270;SDS011;11804;51.118;17.058;2022-08-19T11:39:19;8.18;;;5.17;;
23270;SDS011;11804;51.118;17.058;2022-08-19T11:41:48;11.45;;;5.72;;
23270;SDS011;11804;51.118;17.058;2022-08-19T11:44:15;15.80;;;6.30;;
23270;SDS011;11804;51.118;17.058;2022-08-19T11:46:43;8.88;;;5.60;;
23270;SDS011;11804;51.118;17.058;2022-08-19T11:49:13;9.88;;;4.50;;
23270;SDS011;11804;51.118;17.058;2022-08-19T11:51:44;5.60;;;4.80;;
23270;SDS011;11804;51.118;17.058;2022-08-19T11:54:12;9.68;;;4.90;;
23270;SDS011;11804;51.118;17.058;2022-08-19T11:56:42;5.05;;;4.33;;
23270;SDS011;11804;51.118;17.058;2022-08-19T11:59:14;5.95;;;4.37;;
23270;SDS011;11804;51.118;17.058;2022-08-19T12:01:43;8.33;;;3.87;;
23270;SDS011;11804;51.118;17.058;2022-08-19T12:04:12;7.55;;;3.85;;
23270;SDS011;11804;51.118;17.058;2022-08-19T12:06:39;6.95;;;3.83;;
23270;SDS011;11804;51.118;17.058;2022-08-19T12:09:07;11.30;;;6.25;;
23270;SDS011;11804;51.118;17.058;2022-08-19T12:11:38;7.90;;;3.60;;
23270;SDS011;11804;51.118;17.058;2022-08-19T12:14:06;8.05;;;3.67;;
23270;SDS011;11804;51.118;17.058;2022-08-19T12:16:37;7.60;;;4.00;;
23270;SDS011;11804;51.118;17.058;2022-08-19T12:19:05;6.37;;;4.05;;
23270;SDS011;11804;51.118;17.058;2022-08-19T12:21:34;5.37;;;4.25;;
23270;SDS011;11804;51.118;17.058;2022-08-19T12:24:03;6.65;;;3.85;;
23270;SDS011;11804;51.118;17.058;2022-08-19T12:26:32;9.43;;;3.70;;
23270;SDS011;11804;51.118;17.058;2022-08-19T12:29:00;7.10;;;3.70;;
23270;SDS011;11804;51.118;17.058;2022-08-19T12:31:27;9.33;;;4.20;;
23270;SDS011;11804;51.118;17.058;2022-08-19T12:33:55;12.73;;;4.00;;
23270;SDS011;11804;51.118;17.058;2022-08-19T12:36:23;8.48;;;3.70;;
23270;SDS011;11804;51.118;17.058;2022-08-19T12:38:51;12.28;;;3.98;;
23270;SDS011;11804;51.118;17.058;2022-08-19T12:41:19;7.83;;;4.15;;
23270;SDS011;11804;51.118;17.058;2022-08-19T12:43:49;10.08;;;4.40;;
23270;SDS011;11804;51.118;17.058;2022-08-19T12:46:18;9.80;;;4.12;;
23270;SDS011;11804;51.118;17.058;2022-08-19T12:48:46;7.22;;;4.35;;
23270;SDS011;11804;51.118;17.058;2022-08-19T12:51:16;7.55;;;3.83;;
23270;SDS011;11804;51.118;17.058;2022-08-19T12:53:45;8.60;;;4.72;;
23270;SDS011;11804;51.118;17.058;2022-08-19T12:56:13;9.45;;;3.90;;
23270;SDS011;11804;51.118;17.058;2022-08-19T12:58:41;9.13;;;3.92;;
23270;SDS011;11804;51.118;17.058;2022-08-19T13:01:10;9.65;;;4.05;;
23270;SDS011;11804;51.118;17.058;2022-08-19T13:03:40;10.80;;;3.85;;
23270;SDS011;11804;51.118;17.058;2022-08-19T13:06:10;8.88;;;4.10;;
23270;SDS011;11804;51.118;17.058;2022-08-19T13:08:40;8.85;;;3.62;;
23270;SDS011;11804;51.118;17.058;2022-08-19T13:11:12;7.33;;;3.72;;
23270;SDS011;11804;51.118;17.058;2022-08-19T13:13:43;9.88;;;4.58;;
23270;SDS011;11804;51.118;17.058;2022-08-19T13:16:13;8.00;;;3.65;;
23270;SDS011;11804;51.118;17.058;2022-08-19T13:18:42;10.55;;;3.77;;
23270;SDS011;11804;51.118;17.058;2022-08-19T13:21:13;10.60;;;3.58;;
23270;SDS011;11804;51.118;17.058;2022-08-19T13:23:40;11.38;;;3.98;;
23270;SDS011;11804;51.118;17.058;2022-08-19T13:26:09;8.83;;;3.60;;
23270;SDS011;11804;51.118;17.058;2022-08-19T13:28:38;5.25;;;3.33;;
23270;SDS011;11804;51.118;17.058;2022-08-19T13:31:27;10.65;;;4.45;;
23270;SDS011;11804;51.118;17.058;2022-08-19T13:34:14;6.80;;;4.08;;
23270;SDS011;11804;51.118;17.058;2022-08-19T13:36:42;10.30;;;3.80;;
23270;SDS011;11804;51.118;17.058;2022-08-19T13:39:10;6.22;;;3.60;;
23270;SDS011;11804;51.118;17.058;2022-08-19T13:41:42;10.35;;;3.65;;
23270;SDS011;11804;51.118;17.058;2022-08-19T13:44:08;10.98;;;3.77;;
23270;SDS011;11804;51.118;17.058;2022-08-19T13:46:38;10.98;;;3.92;;
23270;SDS011;11804;51.118;17.058;2022-08-19T13:49:06;10.88;;;4.80;;
23270;SDS011;11804;51.118;17.058;2022-08-19T13:51:34;13.18;;;3.40;;
23270;SDS011;11804;51.118;17.058;2022-08-19T13:54:01;12.25;;;3.72;;
23270;SDS011;11804;51.118;17.058;2022-08-19T13:56:29;12.10;;;3.60;;
23270;SDS011;11804;51.118;17.058;2022-08-19T13:58:57;11.10;;;3.90;;
23270;SDS011;11804;51.118;17.058;2022-08-19T14:01:27;13.55;;;3.70;;
23270;SDS011;11804;51.118;17.058;2022-08-19T14:03:55;11.57;;;4.22;;
23270;SDS011;11804;51.118;17.058;2022-08-19T14:06:24;8.55;;;3.80;;
23270;SDS011;11804;51.118;17.058;2022-08-19T14:08:52;11.73;;;4.08;;
23270;SDS011;11804;51.118;17.058;2022-08-19T14:11:19;12.73;;;3.90;;
23270;SDS011;11804;51.118;17.058;2022-08-19T14:13:49;7.05;;;3.92;;
23270;SDS011;11804;51.118;17.058;2022-08-19T14:16:17;11.63;;;3.92;;
23270;SDS011;11804;51.118;17.058;2022-08-19T14:18:44;6.28;;;3.80;;
23270;SDS011;11804;51.118;17.058;2022-08-19T14:21:16;8.00;;;3.90;;
23270;SDS011;11804;51.118;17.058;2022-08-19T14:23:46;8.38;;;4.17;;
23270;SDS011;11804;51.118;17.058;2022-08-19T14:26:14;14.78;;;4.45;;
23270;SDS011;11804;51.118;17.058;2022-08-19T14:28:44;11.90;;;4.00;;
23270;SDS011;11804;51.118;17.058;2022-08-19T14:31:13;12.40;;;3.87;;
23270;SDS011;11804;51.118;17.058;2022-08-19T14:33:45;10.72;;;4.17;;
23270;SDS011;11804;51.118;17.058;2022-08-19T14:36:14;10.82;;;4.10;;
23270;SDS011;11804;51.118;17.058;2022-08-19T14:38:41;10.78;;;4.70;;
23270;SDS011;11804;51.118;17.058;2022-08-19T14:43:48;13.03;;;4.78;;
23270;SDS011;11804;51.118;17.058;2022-08-19T14:46:21;7.45;;;4.28;;
23270;SDS011;11804;51.118;17.058;2022-08-19T14:48:51;8.35;;;4.87;;